
<gpx xmlns="http://www.topografix.com/GPX/1/1" xmlns:gpxx="http://www.garmin.com/xmlschemas/GpxExtensions/v3" xmlns:xsi="http://www.w3.org/2001/XMLSchema-instance" version="1.1" creator="Adze - https://getadze.com/" xsi:schemaLocation="http://www.topografix.com/GPX/1/1 http://www.topografix.com/GPX/1/1/gpx.xsd http://www.garmin.com/xmlschemas/GpxExtensions/v3 http://www.garmin.com/xmlschemas/GpxExtensionsv3.xsd">
    <metadata>
        <name>Untitled Document</name>
        <link href="http://www.garmin.com"></link>
        <time>2018-02-27T04:41:33.695Z</time>
    </metadata>
    <wpt lon="99.625682" lat="13.459896">
        <ele>92.000000</ele>
        <name>Dragon Hills Hotel</name>
        <cmt>24-AUG-12 15:32:52</cmt>
        <desc>24-AUG-12 15:32:52</desc>
        <sym>Lodging</sym>
        <extensions>
            <gpxx:WaypointExtension xmlns:gpxx="http://www.garmin.com/xmlschemas/GpxExtensions/v3">
                <gpxx:DisplayMode>SymbolAndName</gpxx:DisplayMode>
            </gpxx:WaypointExtension>
        </extensions>
    </wpt>
    <wpt lon="99.575972" lat="13.447853">
        <ele>122.000000</ele>
        <name>Water Sat</name>
        <cmt>25-AUG-12 14:18:52</cmt>
        <desc>25-AUG-12 14:18:52</desc>
        <sym>Drinking Water</sym>
        <extensions>
            <gpxx:WaypointExtension xmlns:gpxx="http://www.garmin.com/xmlschemas/GpxExtensions/v3">
                <gpxx:DisplayMode>SymbolOnly</gpxx:DisplayMode>
            </gpxx:WaypointExtension>
        </extensions>
    </wpt>
    <trk>
        <name>Sat Shurtcut</name>
        <extensions>
            <gpxx:TrackExtension xmlns:gpxx="http://www.garmin.com/xmlschemas/GpxExtensions/v3">
                <gpxx:DisplayColor>DarkRed</gpxx:DisplayColor>
            </gpxx:TrackExtension>
        </extensions>
        <trkseg>
            <trkpt lon="99.575795" lat="13.447815">
                <ele>126.550659</ele>
                <time>2012-08-25T09:18:50Z</time>
            </trkpt>
            <trkpt lon="99.575768" lat="13.447846">
                <ele>130.395996</ele>
                <time>2012-08-25T09:19:51Z</time>
            </trkpt>
            <trkpt lon="99.575749" lat="13.447848">
                <ele>135.683106</ele>
                <time>2012-08-25T09:20:22Z</time>
            </trkpt>
            <trkpt lon="99.575791" lat="13.448035">
                <ele>135.202515</ele>
                <time>2012-08-25T09:20:37Z</time>
            </trkpt>
            <trkpt lon="99.576047" lat="13.448532">
                <ele>132.318603</ele>
                <time>2012-08-25T09:20:55Z</time>
            </trkpt>
            <trkpt lon="99.576531" lat="13.449203">
                <ele>130.876709</ele>
                <time>2012-08-25T09:21:15Z</time>
            </trkpt>
            <trkpt lon="99.576560" lat="13.449673">
                <ele>131.357300</ele>
                <time>2012-08-25T09:21:28Z</time>
            </trkpt>
            <trkpt lon="99.576483" lat="13.450035">
                <ele>131.357300</ele>
                <time>2012-08-25T09:21:41Z</time>
            </trkpt>
            <trkpt lon="99.576561" lat="13.450511">
                <ele>131.837891</ele>
                <time>2012-08-25T09:21:57Z</time>
            </trkpt>
            <trkpt lon="99.576722" lat="13.451037">
                <ele>131.837891</ele>
                <time>2012-08-25T09:22:12Z</time>
            </trkpt>
            <trkpt lon="99.576819" lat="13.451661">
                <ele>130.876709</ele>
                <time>2012-08-25T09:22:27Z</time>
            </trkpt>
            <trkpt lon="99.576900" lat="13.452027">
                <ele>130.395996</ele>
                <time>2012-08-25T09:22:35Z</time>
            </trkpt>
            <trkpt lon="99.577158" lat="13.452319">
                <ele>130.395996</ele>
                <time>2012-08-25T09:22:44Z</time>
            </trkpt>
            <trkpt lon="99.578009" lat="13.452636">
                <ele>127.031372</ele>
                <time>2012-08-25T09:23:02Z</time>
            </trkpt>
            <trkpt lon="99.579133" lat="13.452898">
                <ele>123.186157</ele>
                <time>2012-08-25T09:23:19Z</time>
            </trkpt>
            <trkpt lon="99.579967" lat="13.453139">
                <ele>121.263550</ele>
                <time>2012-08-25T09:23:32Z</time>
            </trkpt>
            <trkpt lon="99.581101" lat="13.453185">
                <ele>119.340820</ele>
                <time>2012-08-25T09:23:50Z</time>
            </trkpt>
            <trkpt lon="99.582278" lat="13.453307">
                <ele>115.014893</ele>
                <time>2012-08-25T09:24:07Z</time>
            </trkpt>
            <trkpt lon="99.582433" lat="13.453356">
                <ele>114.053589</ele>
                <time>2012-08-25T09:24:09Z</time>
            </trkpt>
            <trkpt lon="99.582737" lat="13.453602">
                <ele>113.092285</ele>
                <time>2012-08-25T09:24:14Z</time>
            </trkpt>
            <trkpt lon="99.583033" lat="13.454020">
                <ele>113.572998</ele>
                <time>2012-08-25T09:24:22Z</time>
            </trkpt>
            <trkpt lon="99.583345" lat="13.454150">
                <ele>113.572998</ele>
                <time>2012-08-25T09:24:29Z</time>
            </trkpt>
            <trkpt lon="99.584023" lat="13.454081">
                <ele>117.418213</ele>
                <time>2012-08-25T09:24:47Z</time>
            </trkpt>
            <trkpt lon="99.584616" lat="13.454004">
                <ele>117.418213</ele>
                <time>2012-08-25T09:25:01Z</time>
            </trkpt>
            <trkpt lon="99.585452" lat="13.453746">
                <ele>115.495605</ele>
                <time>2012-08-25T09:25:17Z</time>
            </trkpt>
            <trkpt lon="99.586254" lat="13.453494">
                <ele>115.495605</ele>
                <time>2012-08-25T09:25:31Z</time>
            </trkpt>
            <trkpt lon="99.586818" lat="13.453655">
                <ele>116.937500</ele>
                <time>2012-08-25T09:25:41Z</time>
            </trkpt>
            <trkpt lon="99.587420" lat="13.454187">
                <ele>117.898804</ele>
                <time>2012-08-25T09:25:58Z</time>
            </trkpt>
            <trkpt lon="99.587919" lat="13.454922">
                <ele>113.572998</ele>
                <time>2012-08-25T09:26:13Z</time>
            </trkpt>
            <trkpt lon="99.588413" lat="13.455784">
                <ele>115.014893</ele>
                <time>2012-08-25T09:26:32Z</time>
            </trkpt>
            <trkpt lon="99.588753" lat="13.456730">
                <ele>113.572998</ele>
                <time>2012-08-25T09:26:51Z</time>
            </trkpt>
            <trkpt lon="99.589224" lat="13.457725">
                <ele>112.130981</ele>
                <time>2012-08-25T09:27:09Z</time>
            </trkpt>
            <trkpt lon="99.589671" lat="13.458112">
                <ele>114.053589</ele>
                <time>2012-08-25T09:27:22Z</time>
            </trkpt>
            <trkpt lon="99.590611" lat="13.458619">
                <ele>116.937500</ele>
                <time>2012-08-25T09:27:44Z</time>
            </trkpt>
            <trkpt lon="99.591518" lat="13.458845">
                <ele>116.456787</ele>
                <time>2012-08-25T09:28:01Z</time>
            </trkpt>
            <trkpt lon="99.591950" lat="13.459120">
                <ele>116.456787</ele>
                <time>2012-08-25T09:28:11Z</time>
            </trkpt>
            <trkpt lon="99.592357" lat="13.459915">
                <ele>114.053589</ele>
                <time>2012-08-25T09:28:27Z</time>
            </trkpt>
            <trkpt lon="99.592868" lat="13.460944">
                <ele>112.611572</ele>
                <time>2012-08-25T09:28:46Z</time>
            </trkpt>
            <trkpt lon="99.593636" lat="13.462122">
                <ele>111.650269</ele>
                <time>2012-08-25T09:29:07Z</time>
            </trkpt>
            <trkpt lon="99.594193" lat="13.463117">
                <ele>111.169556</ele>
                <time>2012-08-25T09:29:25Z</time>
            </trkpt>
            <trkpt lon="99.594748" lat="13.464299">
                <ele>108.766235</ele>
                <time>2012-08-25T09:29:46Z</time>
            </trkpt>
            <trkpt lon="99.594824" lat="13.464565">
                <ele>108.285645</ele>
                <time>2012-08-25T09:29:51Z</time>
            </trkpt>
            <trkpt lon="99.594941" lat="13.464889">
                <ele>108.285645</ele>
                <time>2012-08-25T09:30:03Z</time>
            </trkpt>
            <trkpt lon="99.594916" lat="13.464912">
                <ele>108.285645</ele>
                <time>2012-08-25T09:30:13Z</time>
            </trkpt>
        </trkseg>
    </trk>
    <trk>
        <name>Saturday</name>
        <extensions>
            <gpxx:TrackExtension xmlns:gpxx="http://www.garmin.com/xmlschemas/GpxExtensions/v3">
                <gpxx:DisplayColor>Red</gpxx:DisplayColor>
            </gpxx:TrackExtension>
        </extensions>
        <trkseg>
            <trkpt lon="99.625677" lat="13.460276">
                <ele>85.694580</ele>
                <time>2012-08-25T06:04:44Z</time>
            </trkpt>
            <trkpt lon="99.625418" lat="13.460306">
                <ele>86.175293</ele>
                <time>2012-08-25T06:05:42Z</time>
            </trkpt>
            <trkpt lon="99.625239" lat="13.459979">
                <ele>84.252685</ele>
                <time>2012-08-25T06:06:22Z</time>
            </trkpt>
            <trkpt lon="99.621805" lat="13.459595">
                <ele>85.213989</ele>
                <time>2012-08-25T06:08:07Z</time>
            </trkpt>
            <trkpt lon="99.621761" lat="13.458937">
                <ele>85.694580</ele>
                <time>2012-08-25T06:08:33Z</time>
            </trkpt>
            <trkpt lon="99.617341" lat="13.458340">
                <ele>88.578735</ele>
                <time>2012-08-25T06:11:43Z</time>
            </trkpt>
            <trkpt lon="99.617885" lat="13.457112">
                <ele>90.020630</ele>
                <time>2012-08-25T06:12:23Z</time>
            </trkpt>
            <trkpt lon="99.617908" lat="13.457067">
                <ele>88.578735</ele>
                <time>2012-08-25T06:13:07Z</time>
            </trkpt>
            <trkpt lon="99.617476" lat="13.457906">
                <ele>92.904541</ele>
                <time>2012-08-25T06:18:38Z</time>
            </trkpt>
            <trkpt lon="99.617047" lat="13.458801">
                <ele>88.098022</ele>
                <time>2012-08-25T06:23:32Z</time>
            </trkpt>
            <trkpt lon="99.617203" lat="13.458231">
                <ele>88.578735</ele>
                <time>2012-08-25T06:24:33Z</time>
            </trkpt>
            <trkpt lon="99.616297" lat="13.458097">
                <ele>89.539917</ele>
                <time>2012-08-25T06:25:07Z</time>
            </trkpt>
            <trkpt lon="99.615821" lat="13.457570">
                <ele>90.501343</ele>
                <time>2012-08-25T06:25:32Z</time>
            </trkpt>
            <trkpt lon="99.615369" lat="13.457481">
                <ele>91.943237</ele>
                <time>2012-08-25T06:25:50Z</time>
            </trkpt>
            <trkpt lon="99.615233" lat="13.457333">
                <ele>92.423950</ele>
                <time>2012-08-25T06:25:59Z</time>
            </trkpt>
            <trkpt lon="99.615181" lat="13.457177">
                <ele>91.943237</ele>
                <time>2012-08-25T06:26:06Z</time>
            </trkpt>
            <trkpt lon="99.614234" lat="13.457155">
                <ele>103.479004</ele>
                <time>2012-08-25T06:26:48Z</time>
            </trkpt>
            <trkpt lon="99.612742" lat="13.457026">
                <ele>95.307739</ele>
                <time>2012-08-25T06:27:32Z</time>
            </trkpt>
            <trkpt lon="99.611983" lat="13.456706">
                <ele>95.307739</ele>
                <time>2012-08-25T06:28:04Z</time>
            </trkpt>
            <trkpt lon="99.611571" lat="13.456729">
                <ele>95.788452</ele>
                <time>2012-08-25T06:28:24Z</time>
            </trkpt>
            <trkpt lon="99.611708" lat="13.457544">
                <ele>94.827148</ele>
                <time>2012-08-25T06:29:01Z</time>
            </trkpt>
            <trkpt lon="99.611587" lat="13.458314">
                <ele>96.749878</ele>
                <time>2012-08-25T06:29:31Z</time>
            </trkpt>
            <trkpt lon="99.611159" lat="13.458319">
                <ele>96.269287</ele>
                <time>2012-08-25T06:29:46Z</time>
            </trkpt>
            <trkpt lon="99.607219" lat="13.456399">
                <ele>103.479004</ele>
                <time>2012-08-25T06:32:19Z</time>
            </trkpt>
            <trkpt lon="99.606584" lat="13.456103">
                <ele>101.556397</ele>
                <time>2012-08-25T06:32:42Z</time>
            </trkpt>
            <trkpt lon="99.605549" lat="13.456572">
                <ele>101.075684</ele>
                <time>2012-08-25T06:33:22Z</time>
            </trkpt>
            <trkpt lon="99.604771" lat="13.456430">
                <ele>98.672485</ele>
                <time>2012-08-25T06:33:52Z</time>
            </trkpt>
            <trkpt lon="99.604478" lat="13.456305">
                <ele>99.153076</ele>
                <time>2012-08-25T06:34:18Z</time>
            </trkpt>
            <trkpt lon="99.604480" lat="13.456178">
                <ele>102.517700</ele>
                <time>2012-08-25T06:36:40Z</time>
            </trkpt>
            <trkpt lon="99.604179" lat="13.456198">
                <ele>98.672485</ele>
                <time>2012-08-25T06:44:40Z</time>
            </trkpt>
            <trkpt lon="99.603804" lat="13.456507">
                <ele>99.633789</ele>
                <time>2012-08-25T06:45:07Z</time>
            </trkpt>
            <trkpt lon="99.603521" lat="13.456549">
                <ele>100.595093</ele>
                <time>2012-08-25T06:45:19Z</time>
            </trkpt>
            <trkpt lon="99.602919" lat="13.456334">
                <ele>104.440430</ele>
                <time>2012-08-25T06:45:41Z</time>
            </trkpt>
            <trkpt lon="99.602633" lat="13.456028">
                <ele>105.401733</ele>
                <time>2012-08-25T06:45:55Z</time>
            </trkpt>
            <trkpt lon="99.602586" lat="13.455940">
                <ele>105.401733</ele>
                <time>2012-08-25T06:46:06Z</time>
            </trkpt>
            <trkpt lon="99.601851" lat="13.457074">
                <ele>103.959717</ele>
                <time>2012-08-25T06:47:33Z</time>
            </trkpt>
            <trkpt lon="99.601461" lat="13.457361">
                <ele>105.401733</ele>
                <time>2012-08-25T06:48:09Z</time>
            </trkpt>
            <trkpt lon="99.601484" lat="13.457420">
                <ele>105.401733</ele>
                <time>2012-08-25T06:48:13Z</time>
            </trkpt>
            <trkpt lon="99.601433" lat="13.457489">
                <ele>104.921020</ele>
                <time>2012-08-25T06:48:18Z</time>
            </trkpt>
            <trkpt lon="99.600335" lat="13.457737">
                <ele>109.246948</ele>
                <time>2012-08-25T06:49:16Z</time>
            </trkpt>
            <trkpt lon="99.599989" lat="13.457872">
                <ele>107.324341</ele>
                <time>2012-08-25T06:49:34Z</time>
            </trkpt>
            <trkpt lon="99.599663" lat="13.458390">
                <ele>109.246948</ele>
                <time>2012-08-25T06:50:00Z</time>
            </trkpt>
            <trkpt lon="99.599492" lat="13.458738">
                <ele>106.843628</ele>
                <time>2012-08-25T06:50:13Z</time>
            </trkpt>
            <trkpt lon="99.598955" lat="13.458816">
                <ele>109.246948</ele>
                <time>2012-08-25T06:50:38Z</time>
            </trkpt>
            <trkpt lon="99.598201" lat="13.459168">
                <ele>115.014893</ele>
                <time>2012-08-25T06:51:21Z</time>
            </trkpt>
            <trkpt lon="99.598185" lat="13.459492">
                <ele>113.092285</ele>
                <time>2012-08-25T06:51:34Z</time>
            </trkpt>
            <trkpt lon="99.597910" lat="13.459646">
                <ele>114.534180</ele>
                <time>2012-08-25T06:51:45Z</time>
            </trkpt>
            <trkpt lon="99.597779" lat="13.459660">
                <ele>113.092285</ele>
                <time>2012-08-25T06:51:50Z</time>
            </trkpt>
            <trkpt lon="99.597722" lat="13.459820">
                <ele>114.053589</ele>
                <time>2012-08-25T06:51:56Z</time>
            </trkpt>
            <trkpt lon="99.597688" lat="13.460480">
                <ele>111.169556</ele>
                <time>2012-08-25T06:52:13Z</time>
            </trkpt>
            <trkpt lon="99.598012" lat="13.461036">
                <ele>110.688843</ele>
                <time>2012-08-25T06:52:30Z</time>
            </trkpt>
            <trkpt lon="99.598025" lat="13.461608">
                <ele>106.363037</ele>
                <time>2012-08-25T06:52:44Z</time>
            </trkpt>
            <trkpt lon="99.598269" lat="13.462104">
                <ele>106.363037</ele>
                <time>2012-08-25T06:53:02Z</time>
            </trkpt>
            <trkpt lon="99.598276" lat="13.462221">
                <ele>105.882446</ele>
                <time>2012-08-25T06:53:17Z</time>
            </trkpt>
            <trkpt lon="99.596666" lat="13.462729">
                <ele>104.440430</ele>
                <time>2012-08-25T06:54:07Z</time>
            </trkpt>
            <trkpt lon="99.596403" lat="13.462209">
                <ele>109.246948</ele>
                <time>2012-08-25T06:54:37Z</time>
            </trkpt>
            <trkpt lon="99.595909" lat="13.462131">
                <ele>109.246948</ele>
                <time>2012-08-25T06:54:59Z</time>
            </trkpt>
            <trkpt lon="99.595798" lat="13.461562">
                <ele>111.169556</ele>
                <time>2012-08-25T06:55:28Z</time>
            </trkpt>
            <trkpt lon="99.595527" lat="13.461391">
                <ele>113.092285</ele>
                <time>2012-08-25T06:56:05Z</time>
            </trkpt>
            <trkpt lon="99.594726" lat="13.461053">
                <ele>111.169556</ele>
                <time>2012-08-25T06:56:36Z</time>
            </trkpt>
            <trkpt lon="99.594161" lat="13.460452">
                <ele>113.092285</ele>
                <time>2012-08-25T06:57:03Z</time>
            </trkpt>
            <trkpt lon="99.594042" lat="13.460000">
                <ele>115.014893</ele>
                <time>2012-08-25T06:57:17Z</time>
            </trkpt>
            <trkpt lon="99.594124" lat="13.459249">
                <ele>119.821411</ele>
                <time>2012-08-25T06:57:52Z</time>
            </trkpt>
            <trkpt lon="99.594051" lat="13.458735">
                <ele>119.821411</ele>
                <time>2012-08-25T06:58:16Z</time>
            </trkpt>
            <trkpt lon="99.593714" lat="13.458659">
                <ele>116.456787</ele>
                <time>2012-08-25T06:58:31Z</time>
            </trkpt>
            <trkpt lon="99.593122" lat="13.458049">
                <ele>123.666748</ele>
                <time>2012-08-25T06:59:15Z</time>
            </trkpt>
            <trkpt lon="99.593069" lat="13.457861">
                <ele>121.744141</ele>
                <time>2012-08-25T06:59:27Z</time>
            </trkpt>
            <trkpt lon="99.592386" lat="13.457631">
                <ele>115.495605</ele>
                <time>2012-08-25T07:00:12Z</time>
            </trkpt>
            <trkpt lon="99.592169" lat="13.458038">
                <ele>114.534180</ele>
                <time>2012-08-25T07:00:32Z</time>
            </trkpt>
            <trkpt lon="99.591659" lat="13.458534">
                <ele>112.130981</ele>
                <time>2012-08-25T07:01:00Z</time>
            </trkpt>
            <trkpt lon="99.591193" lat="13.458669">
                <ele>108.285645</ele>
                <time>2012-08-25T07:01:59Z</time>
            </trkpt>
            <trkpt lon="99.590532" lat="13.458520">
                <ele>119.340820</ele>
                <time>2012-08-25T07:02:44Z</time>
            </trkpt>
            <trkpt lon="99.589726" lat="13.458056">
                <ele>112.611572</ele>
                <time>2012-08-25T07:03:04Z</time>
            </trkpt>
            <trkpt lon="99.589149" lat="13.457513">
                <ele>107.805054</ele>
                <time>2012-08-25T07:03:18Z</time>
            </trkpt>
            <trkpt lon="99.588239" lat="13.455397">
                <ele>106.363037</ele>
                <time>2012-08-25T07:04:09Z</time>
            </trkpt>
            <trkpt lon="99.587520" lat="13.454213">
                <ele>107.805054</ele>
                <time>2012-08-25T07:04:39Z</time>
            </trkpt>
            <trkpt lon="99.587152" lat="13.453842">
                <ele>108.766235</ele>
                <time>2012-08-25T07:04:54Z</time>
            </trkpt>
            <trkpt lon="99.586518" lat="13.453449">
                <ele>105.882446</ele>
                <time>2012-08-25T07:05:09Z</time>
            </trkpt>
            <trkpt lon="99.585805" lat="13.453569">
                <ele>106.843628</ele>
                <time>2012-08-25T07:05:24Z</time>
            </trkpt>
            <trkpt lon="99.585205" lat="13.450754">
                <ele>122.224731</ele>
                <time>2012-08-25T07:07:32Z</time>
            </trkpt>
            <trkpt lon="99.583947" lat="13.451042">
                <ele>116.937500</ele>
                <time>2012-08-25T07:08:54Z</time>
            </trkpt>
            <trkpt lon="99.583160" lat="13.451559">
                <ele>115.014893</ele>
                <time>2012-08-25T07:09:34Z</time>
            </trkpt>
            <trkpt lon="99.582703" lat="13.451587">
                <ele>110.208252</ele>
                <time>2012-08-25T07:09:49Z</time>
            </trkpt>
            <trkpt lon="99.582487" lat="13.451112">
                <ele>110.688843</ele>
                <time>2012-08-25T07:10:14Z</time>
            </trkpt>
            <trkpt lon="99.582460" lat="13.450189">
                <ele>113.572998</ele>
                <time>2012-08-25T07:10:53Z</time>
            </trkpt>
            <trkpt lon="99.582354" lat="13.449866">
                <ele>108.766235</ele>
                <time>2012-08-25T07:11:11Z</time>
            </trkpt>
            <trkpt lon="99.582167" lat="13.449706">
                <ele>107.805054</ele>
                <time>2012-08-25T07:11:20Z</time>
            </trkpt>
            <trkpt lon="99.581469" lat="13.449751">
                <ele>110.688843</ele>
                <time>2012-08-25T07:11:49Z</time>
            </trkpt>
            <trkpt lon="99.581382" lat="13.449732">
                <ele>110.208252</ele>
                <time>2012-08-25T07:11:52Z</time>
            </trkpt>
            <trkpt lon="99.580796" lat="13.449166">
                <ele>111.169556</ele>
                <time>2012-08-25T07:12:23Z</time>
            </trkpt>
            <trkpt lon="99.580740" lat="13.448365">
                <ele>114.053589</ele>
                <time>2012-08-25T07:12:57Z</time>
            </trkpt>
            <trkpt lon="99.580254" lat="13.447567">
                <ele>120.782837</ele>
                <time>2012-08-25T07:13:37Z</time>
            </trkpt>
            <trkpt lon="99.580100" lat="13.447088">
                <ele>114.534180</ele>
                <time>2012-08-25T07:14:04Z</time>
            </trkpt>
            <trkpt lon="99.580213" lat="13.446476">
                <ele>111.169556</ele>
                <time>2012-08-25T07:14:37Z</time>
            </trkpt>
            <trkpt lon="99.579473" lat="13.446043">
                <ele>108.285645</ele>
                <time>2012-08-25T07:15:24Z</time>
            </trkpt>
            <trkpt lon="99.579344" lat="13.445793">
                <ele>107.324341</ele>
                <time>2012-08-25T07:15:37Z</time>
            </trkpt>
            <trkpt lon="99.578417" lat="13.445580">
                <ele>112.611572</ele>
                <time>2012-08-25T07:16:11Z</time>
            </trkpt>
            <trkpt lon="99.578108" lat="13.445597">
                <ele>110.688843</ele>
                <time>2012-08-25T07:16:24Z</time>
            </trkpt>
            <trkpt lon="99.577634" lat="13.447600">
                <ele>119.340820</ele>
                <time>2012-08-25T07:17:35Z</time>
            </trkpt>
            <trkpt lon="99.575879" lat="13.447815">
                <ele>121.744141</ele>
                <time>2012-08-25T07:24:18Z</time>
            </trkpt>
            <trkpt lon="99.574977" lat="13.445831">
                <ele>115.976196</ele>
                <time>2012-08-25T07:25:19Z</time>
            </trkpt>
            <trkpt lon="99.574021" lat="13.444541">
                <ele>118.379395</ele>
                <time>2012-08-25T07:26:11Z</time>
            </trkpt>
            <trkpt lon="99.574089" lat="13.444199">
                <ele>119.821411</ele>
                <time>2012-08-25T07:26:24Z</time>
            </trkpt>
            <trkpt lon="99.574747" lat="13.443538">
                <ele>124.147339</ele>
                <time>2012-08-25T07:27:18Z</time>
            </trkpt>
            <trkpt lon="99.575262" lat="13.443256">
                <ele>127.992554</ele>
                <time>2012-08-25T07:27:46Z</time>
            </trkpt>
            <trkpt lon="99.575485" lat="13.442892">
                <ele>125.108765</ele>
                <time>2012-08-25T07:28:07Z</time>
            </trkpt>
            <trkpt lon="99.575821" lat="13.441585">
                <ele>133.760498</ele>
                <time>2012-08-25T07:29:14Z</time>
            </trkpt>
            <trkpt lon="99.575914" lat="13.441199">
                <ele>131.837891</ele>
                <time>2012-08-25T07:29:27Z</time>
            </trkpt>
            <trkpt lon="99.576014" lat="13.440681">
                <ele>132.318603</ele>
                <time>2012-08-25T07:29:46Z</time>
            </trkpt>
            <trkpt lon="99.576496" lat="13.440054">
                <ele>134.721924</ele>
                <time>2012-08-25T07:30:16Z</time>
            </trkpt>
            <trkpt lon="99.576557" lat="13.439216">
                <ele>134.721924</ele>
                <time>2012-08-25T07:30:56Z</time>
            </trkpt>
            <trkpt lon="99.576491" lat="13.439049">
                <ele>139.047852</ele>
                <time>2012-08-25T07:31:48Z</time>
            </trkpt>
            <trkpt lon="99.576477" lat="13.438964">
                <ele>138.086548</ele>
                <time>2012-08-25T07:33:20Z</time>
            </trkpt>
            <trkpt lon="99.576304" lat="13.439028">
                <ele>147.699707</ele>
                <time>2012-08-25T07:35:25Z</time>
            </trkpt>
            <trkpt lon="99.576251" lat="13.439042">
                <ele>146.257812</ele>
                <time>2012-08-25T07:35:32Z</time>
            </trkpt>
            <trkpt lon="99.576197" lat="13.439093">
                <ele>152.025757</ele>
                <time>2012-08-25T07:35:46Z</time>
            </trkpt>
            <trkpt lon="99.575970" lat="13.439132">
                <ele>151.544922</ele>
                <time>2012-08-25T07:36:25Z</time>
            </trkpt>
            <trkpt lon="99.575582" lat="13.438787">
                <ele>149.622314</ele>
                <time>2012-08-25T07:37:04Z</time>
            </trkpt>
            <trkpt lon="99.574946" lat="13.438486">
                <ele>149.141602</ele>
                <time>2012-08-25T07:38:10Z</time>
            </trkpt>
            <trkpt lon="99.574890" lat="13.437506">
                <ele>137.125244</ele>
                <time>2012-08-25T07:39:52Z</time>
            </trkpt>
            <trkpt lon="99.572415" lat="13.437411">
                <ele>135.683106</ele>
                <time>2012-08-25T07:41:35Z</time>
            </trkpt>
            <trkpt lon="99.571691" lat="13.437819">
                <ele>131.837891</ele>
                <time>2012-08-25T07:42:04Z</time>
            </trkpt>
            <trkpt lon="99.571214" lat="13.437858">
                <ele>131.357300</ele>
                <time>2012-08-25T07:42:19Z</time>
            </trkpt>
            <trkpt lon="99.570956" lat="13.437670">
                <ele>131.357300</ele>
                <time>2012-08-25T07:42:31Z</time>
            </trkpt>
            <trkpt lon="99.570594" lat="13.437580">
                <ele>127.992554</ele>
                <time>2012-08-25T07:42:45Z</time>
            </trkpt>
            <trkpt lon="99.569763" lat="13.437630">
                <ele>123.666748</ele>
                <time>2012-08-25T07:43:19Z</time>
            </trkpt>
            <trkpt lon="99.569285" lat="13.435921">
                <ele>130.876709</ele>
                <time>2012-08-25T07:44:19Z</time>
            </trkpt>
            <trkpt lon="99.569103" lat="13.435343">
                <ele>130.395996</ele>
                <time>2012-08-25T07:44:37Z</time>
            </trkpt>
            <trkpt lon="99.569032" lat="13.434719">
                <ele>131.357300</ele>
                <time>2012-08-25T07:44:57Z</time>
            </trkpt>
            <trkpt lon="99.567611" lat="13.434837">
                <ele>142.893066</ele>
                <time>2012-08-25T07:46:11Z</time>
            </trkpt>
            <trkpt lon="99.566848" lat="13.434709">
                <ele>148.661011</ele>
                <time>2012-08-25T07:47:04Z</time>
            </trkpt>
            <trkpt lon="99.565912" lat="13.435409">
                <ele>145.296387</ele>
                <time>2012-08-25T07:47:53Z</time>
            </trkpt>
            <trkpt lon="99.565646" lat="13.435482">
                <ele>146.738403</ele>
                <time>2012-08-25T07:48:06Z</time>
            </trkpt>
            <trkpt lon="99.565264" lat="13.435547">
                <ele>147.699707</ele>
                <time>2012-08-25T07:48:21Z</time>
            </trkpt>
            <trkpt lon="99.563717" lat="13.435917">
                <ele>142.893066</ele>
                <time>2012-08-25T07:49:10Z</time>
            </trkpt>
            <trkpt lon="99.561675" lat="13.435774">
                <ele>144.815796</ele>
                <time>2012-08-25T07:50:15Z</time>
            </trkpt>
            <trkpt lon="99.560544" lat="13.436008">
                <ele>145.296387</ele>
                <time>2012-08-25T07:50:55Z</time>
            </trkpt>
            <trkpt lon="99.558790" lat="13.436699">
                <ele>148.661011</ele>
                <time>2012-08-25T07:52:06Z</time>
            </trkpt>
            <trkpt lon="99.558436" lat="13.436716">
                <ele>150.583618</ele>
                <time>2012-08-25T07:52:21Z</time>
            </trkpt>
            <trkpt lon="99.557220" lat="13.436181">
                <ele>147.218994</ele>
                <time>2012-08-25T07:53:16Z</time>
            </trkpt>
            <trkpt lon="99.556565" lat="13.436109">
                <ele>147.218994</ele>
                <time>2012-08-25T07:53:37Z</time>
            </trkpt>
            <trkpt lon="99.555846" lat="13.434358">
                <ele>151.544922</ele>
                <time>2012-08-25T07:55:11Z</time>
            </trkpt>
            <trkpt lon="99.554722" lat="13.434030">
                <ele>152.986939</ele>
                <time>2012-08-25T07:56:08Z</time>
            </trkpt>
            <trkpt lon="99.553584" lat="13.433943">
                <ele>151.064209</ele>
                <time>2012-08-25T07:56:47Z</time>
            </trkpt>
            <trkpt lon="99.553522" lat="13.435078">
                <ele>153.467651</ele>
                <time>2012-08-25T07:57:47Z</time>
            </trkpt>
            <trkpt lon="99.553417" lat="13.435319">
                <ele>162.119507</ele>
                <time>2012-08-25T07:58:05Z</time>
            </trkpt>
            <trkpt lon="99.553260" lat="13.435470">
                <ele>163.561523</ele>
                <time>2012-08-25T07:58:36Z</time>
            </trkpt>
            <trkpt lon="99.551984" lat="13.437703">
                <ele>156.351562</ele>
                <time>2012-08-25T08:01:18Z</time>
            </trkpt>
            <trkpt lon="99.550655" lat="13.438807">
                <ele>169.329468</ele>
                <time>2012-08-25T08:02:40Z</time>
            </trkpt>
            <trkpt lon="99.550141" lat="13.438968">
                <ele>171.252075</ele>
                <time>2012-08-25T08:03:03Z</time>
            </trkpt>
            <trkpt lon="99.549027" lat="13.439306">
                <ele>169.810059</ele>
                <time>2012-08-25T08:03:51Z</time>
            </trkpt>
            <trkpt lon="99.548497" lat="13.440304">
                <ele>176.539307</ele>
                <time>2012-08-25T08:04:49Z</time>
            </trkpt>
            <trkpt lon="99.546491" lat="13.443029">
                <ele>192.401123</ele>
                <time>2012-08-25T08:08:36Z</time>
            </trkpt>
            <trkpt lon="99.546269" lat="13.443193">
                <ele>192.881714</ele>
                <time>2012-08-25T08:08:50Z</time>
            </trkpt>
            <trkpt lon="99.545998" lat="13.443465">
                <ele>192.881714</ele>
                <time>2012-08-25T08:09:07Z</time>
            </trkpt>
            <trkpt lon="99.545374" lat="13.445045">
                <ele>190.958984</ele>
                <time>2012-08-25T08:09:53Z</time>
            </trkpt>
            <trkpt lon="99.545166" lat="13.445947">
                <ele>188.075073</ele>
                <time>2012-08-25T08:10:23Z</time>
            </trkpt>
            <trkpt lon="99.544795" lat="13.446157">
                <ele>185.191162</ele>
                <time>2012-08-25T08:10:42Z</time>
            </trkpt>
            <trkpt lon="99.544437" lat="13.446337">
                <ele>178.942627</ele>
                <time>2012-08-25T08:11:00Z</time>
            </trkpt>
            <trkpt lon="99.544036" lat="13.446601">
                <ele>169.810059</ele>
                <time>2012-08-25T08:11:31Z</time>
            </trkpt>
            <trkpt lon="99.543010" lat="13.447566">
                <ele>155.390259</ele>
                <time>2012-08-25T08:12:51Z</time>
            </trkpt>
            <trkpt lon="99.541824" lat="13.448426">
                <ele>147.218994</ele>
                <time>2012-08-25T08:13:37Z</time>
            </trkpt>
            <trkpt lon="99.541060" lat="13.449263">
                <ele>146.738403</ele>
                <time>2012-08-25T08:14:22Z</time>
            </trkpt>
            <trkpt lon="99.539587" lat="13.450569">
                <ele>150.583618</ele>
                <time>2012-08-25T08:15:27Z</time>
            </trkpt>
            <trkpt lon="99.537031" lat="13.453181">
                <ele>145.777100</ele>
                <time>2012-08-25T08:18:12Z</time>
            </trkpt>
            <trkpt lon="99.536652" lat="13.453612">
                <ele>141.451050</ele>
                <time>2012-08-25T08:18:50Z</time>
            </trkpt>
            <trkpt lon="99.536908" lat="13.454028">
                <ele>143.373657</ele>
                <time>2012-08-25T08:19:43Z</time>
            </trkpt>
            <trkpt lon="99.536767" lat="13.454258">
                <ele>144.335205</ele>
                <time>2012-08-25T08:19:58Z</time>
            </trkpt>
            <trkpt lon="99.536265" lat="13.455464">
                <ele>132.318603</ele>
                <time>2012-08-25T08:20:45Z</time>
            </trkpt>
            <trkpt lon="99.536294" lat="13.455721">
                <ele>131.837891</ele>
                <time>2012-08-25T08:20:54Z</time>
            </trkpt>
            <trkpt lon="99.536458" lat="13.455718">
                <ele>130.876709</ele>
                <time>2012-08-25T08:21:00Z</time>
            </trkpt>
            <trkpt lon="99.537670" lat="13.454916">
                <ele>142.412476</ele>
                <time>2012-08-25T08:22:30Z</time>
            </trkpt>
            <trkpt lon="99.538464" lat="13.454470">
                <ele>140.489868</ele>
                <time>2012-08-25T08:23:31Z</time>
            </trkpt>
            <trkpt lon="99.539099" lat="13.454696">
                <ele>142.893066</ele>
                <time>2012-08-25T08:24:51Z</time>
            </trkpt>
            <trkpt lon="99.539619" lat="13.455099">
                <ele>143.854370</ele>
                <time>2012-08-25T08:25:16Z</time>
            </trkpt>
            <trkpt lon="99.540668" lat="13.455276">
                <ele>138.086548</ele>
                <time>2012-08-25T08:26:38Z</time>
            </trkpt>
            <trkpt lon="99.541208" lat="13.455511">
                <ele>131.357300</ele>
                <time>2012-08-25T08:27:03Z</time>
            </trkpt>
            <trkpt lon="99.541266" lat="13.455493">
                <ele>133.279907</ele>
                <time>2012-08-25T08:27:28Z</time>
            </trkpt>
            <trkpt lon="99.541561" lat="13.455395">
                <ele>129.434692</ele>
                <time>2012-08-25T08:27:43Z</time>
            </trkpt>
            <trkpt lon="99.541959" lat="13.455652">
                <ele>130.876709</ele>
                <time>2012-08-25T08:28:04Z</time>
            </trkpt>
            <trkpt lon="99.542234" lat="13.456241">
                <ele>127.511963</ele>
                <time>2012-08-25T08:28:29Z</time>
            </trkpt>
            <trkpt lon="99.542722" lat="13.456764">
                <ele>128.954102</ele>
                <time>2012-08-25T08:28:53Z</time>
            </trkpt>
            <trkpt lon="99.542939" lat="13.457080">
                <ele>127.992554</ele>
                <time>2012-08-25T08:29:09Z</time>
            </trkpt>
            <trkpt lon="99.544020" lat="13.457877">
                <ele>128.954102</ele>
                <time>2012-08-25T08:30:03Z</time>
            </trkpt>
            <trkpt lon="99.544657" lat="13.455087">
                <ele>133.279907</ele>
                <time>2012-08-25T08:31:48Z</time>
            </trkpt>
            <trkpt lon="99.544845" lat="13.454918">
                <ele>134.241211</ele>
                <time>2012-08-25T08:32:01Z</time>
            </trkpt>
            <trkpt lon="99.545385" lat="13.454798">
                <ele>131.837891</ele>
                <time>2012-08-25T08:32:25Z</time>
            </trkpt>
            <trkpt lon="99.545753" lat="13.454153">
                <ele>136.163940</ele>
                <time>2012-08-25T08:32:55Z</time>
            </trkpt>
            <trkpt lon="99.546159" lat="13.453677">
                <ele>132.799316</ele>
                <time>2012-08-25T08:33:27Z</time>
            </trkpt>
            <trkpt lon="99.546697" lat="13.453436">
                <ele>136.163940</ele>
                <time>2012-08-25T08:33:53Z</time>
            </trkpt>
            <trkpt lon="99.547193" lat="13.452160">
                <ele>146.257812</ele>
                <time>2012-08-25T08:34:54Z</time>
            </trkpt>
            <trkpt lon="99.547470" lat="13.451772">
                <ele>146.738403</ele>
                <time>2012-08-25T08:35:12Z</time>
            </trkpt>
            <trkpt lon="99.547788" lat="13.451562">
                <ele>143.854370</ele>
                <time>2012-08-25T08:35:25Z</time>
            </trkpt>
            <trkpt lon="99.548617" lat="13.451640">
                <ele>143.854370</ele>
                <time>2012-08-25T08:35:59Z</time>
            </trkpt>
            <trkpt lon="99.549466" lat="13.451343">
                <ele>150.103027</ele>
                <time>2012-08-25T08:36:49Z</time>
            </trkpt>
            <trkpt lon="99.549550" lat="13.451323">
                <ele>149.622314</ele>
                <time>2012-08-25T08:36:56Z</time>
            </trkpt>
            <trkpt lon="99.549800" lat="13.451947">
                <ele>148.661011</ele>
                <time>2012-08-25T08:37:53Z</time>
            </trkpt>
            <trkpt lon="99.549626" lat="13.451299">
                <ele>149.141602</ele>
                <time>2012-08-25T08:39:50Z</time>
            </trkpt>
            <trkpt lon="99.550039" lat="13.451129">
                <ele>149.622314</ele>
                <time>2012-08-25T08:40:06Z</time>
            </trkpt>
            <trkpt lon="99.550727" lat="13.450404">
                <ele>153.467651</ele>
                <time>2012-08-25T08:40:54Z</time>
            </trkpt>
            <trkpt lon="99.551088" lat="13.450209">
                <ele>154.909546</ele>
                <time>2012-08-25T08:41:12Z</time>
            </trkpt>
            <trkpt lon="99.551916" lat="13.450211">
                <ele>164.042114</ele>
                <time>2012-08-25T08:43:37Z</time>
            </trkpt>
            <trkpt lon="99.553113" lat="13.450291">
                <ele>160.677490</ele>
                <time>2012-08-25T08:45:50Z</time>
            </trkpt>
            <trkpt lon="99.553451" lat="13.449949">
                <ele>158.754761</ele>
                <time>2012-08-25T08:46:03Z</time>
            </trkpt>
            <trkpt lon="99.554199" lat="13.449516">
                <ele>155.390259</ele>
                <time>2012-08-25T08:46:21Z</time>
            </trkpt>
            <trkpt lon="99.555516" lat="13.448714">
                <ele>146.738403</ele>
                <time>2012-08-25T08:46:52Z</time>
            </trkpt>
            <trkpt lon="99.555782" lat="13.448283">
                <ele>146.257812</ele>
                <time>2012-08-25T08:47:04Z</time>
            </trkpt>
            <trkpt lon="99.556325" lat="13.447928">
                <ele>145.296387</ele>
                <time>2012-08-25T08:47:20Z</time>
            </trkpt>
            <trkpt lon="99.556440" lat="13.447932">
                <ele>143.373657</ele>
                <time>2012-08-25T08:47:40Z</time>
            </trkpt>
            <trkpt lon="99.556426" lat="13.448103">
                <ele>143.854370</ele>
                <time>2012-08-25T08:48:45Z</time>
            </trkpt>
            <trkpt lon="99.556371" lat="13.448088">
                <ele>146.257812</ele>
                <time>2012-08-25T08:55:41Z</time>
            </trkpt>
            <trkpt lon="99.556374" lat="13.447861">
                <ele>147.218994</ele>
                <time>2012-08-25T08:56:15Z</time>
            </trkpt>
            <trkpt lon="99.555596" lat="13.447372">
                <ele>149.622314</ele>
                <time>2012-08-25T08:56:53Z</time>
            </trkpt>
            <trkpt lon="99.555270" lat="13.447019">
                <ele>150.103027</ele>
                <time>2012-08-25T08:57:09Z</time>
            </trkpt>
            <trkpt lon="99.555324" lat="13.446640">
                <ele>156.351562</ele>
                <time>2012-08-25T08:57:38Z</time>
            </trkpt>
            <trkpt lon="99.555806" lat="13.446409">
                <ele>160.677490</ele>
                <time>2012-08-25T08:58:06Z</time>
            </trkpt>
            <trkpt lon="99.555978" lat="13.446172">
                <ele>161.638916</ele>
                <time>2012-08-25T08:58:19Z</time>
            </trkpt>
            <trkpt lon="99.556874" lat="13.444890">
                <ele>158.274170</ele>
                <time>2012-08-25T08:59:23Z</time>
            </trkpt>
            <trkpt lon="99.557380" lat="13.444457">
                <ele>156.832153</ele>
                <time>2012-08-25T08:59:38Z</time>
            </trkpt>
            <trkpt lon="99.557898" lat="13.444204">
                <ele>165.003418</ele>
                <time>2012-08-25T09:00:30Z</time>
            </trkpt>
            <trkpt lon="99.558819" lat="13.443732">
                <ele>157.793579</ele>
                <time>2012-08-25T09:01:05Z</time>
            </trkpt>
            <trkpt lon="99.559478" lat="13.443470">
                <ele>157.312866</ele>
                <time>2012-08-25T09:01:18Z</time>
            </trkpt>
            <trkpt lon="99.559718" lat="13.443422">
                <ele>161.638916</ele>
                <time>2012-08-25T09:01:52Z</time>
            </trkpt>
            <trkpt lon="99.560037" lat="13.443354">
                <ele>163.080811</ele>
                <time>2012-08-25T09:02:06Z</time>
            </trkpt>
            <trkpt lon="99.560661" lat="13.443182">
                <ele>165.964722</ele>
                <time>2012-08-25T09:02:42Z</time>
            </trkpt>
            <trkpt lon="99.561195" lat="13.443189">
                <ele>172.213257</ele>
                <time>2012-08-25T09:03:18Z</time>
            </trkpt>
            <trkpt lon="99.561630" lat="13.442854">
                <ele>175.097290</ele>
                <time>2012-08-25T09:03:49Z</time>
            </trkpt>
            <trkpt lon="99.561693" lat="13.442764">
                <ele>175.097290</ele>
                <time>2012-08-25T09:03:55Z</time>
            </trkpt>
            <trkpt lon="99.562480" lat="13.442270">
                <ele>166.926025</ele>
                <time>2012-08-25T09:04:27Z</time>
            </trkpt>
            <trkpt lon="99.563712" lat="13.441947">
                <ele>165.003418</ele>
                <time>2012-08-25T09:05:05Z</time>
            </trkpt>
            <trkpt lon="99.564378" lat="13.442520">
                <ele>158.274170</ele>
                <time>2012-08-25T09:06:00Z</time>
            </trkpt>
            <trkpt lon="99.565436" lat="13.442542">
                <ele>155.870972</ele>
                <time>2012-08-25T09:06:34Z</time>
            </trkpt>
            <trkpt lon="99.565802" lat="13.442381">
                <ele>154.428955</ele>
                <time>2012-08-25T09:06:47Z</time>
            </trkpt>
            <trkpt lon="99.566259" lat="13.442273">
                <ele>150.583618</ele>
                <time>2012-08-25T09:07:03Z</time>
            </trkpt>
            <trkpt lon="99.567537" lat="13.441360">
                <ele>145.296387</ele>
                <time>2012-08-25T09:07:54Z</time>
            </trkpt>
            <trkpt lon="99.567899" lat="13.441011">
                <ele>142.412476</ele>
                <time>2012-08-25T09:08:12Z</time>
            </trkpt>
            <trkpt lon="99.568004" lat="13.440394">
                <ele>139.047852</ele>
                <time>2012-08-25T09:08:41Z</time>
            </trkpt>
            <trkpt lon="99.569672" lat="13.439476">
                <ele>137.605835</ele>
                <time>2012-08-25T09:09:41Z</time>
            </trkpt>
            <trkpt lon="99.570077" lat="13.439408">
                <ele>133.279907</ele>
                <time>2012-08-25T09:09:57Z</time>
            </trkpt>
            <trkpt lon="99.570176" lat="13.439351">
                <ele>129.915283</ele>
                <time>2012-08-25T09:10:06Z</time>
            </trkpt>
            <trkpt lon="99.570357" lat="13.440523">
                <ele>129.915283</ele>
                <time>2012-08-25T09:10:43Z</time>
            </trkpt>
            <trkpt lon="99.570781" lat="13.441346">
                <ele>128.954102</ele>
                <time>2012-08-25T09:11:01Z</time>
            </trkpt>
            <trkpt lon="99.571061" lat="13.442309">
                <ele>127.031372</ele>
                <time>2012-08-25T09:11:18Z</time>
            </trkpt>
            <trkpt lon="99.571030" lat="13.442942">
                <ele>125.108765</ele>
                <time>2012-08-25T09:11:33Z</time>
            </trkpt>
            <trkpt lon="99.571278" lat="13.443272">
                <ele>127.992554</ele>
                <time>2012-08-25T09:11:47Z</time>
            </trkpt>
            <trkpt lon="99.571837" lat="13.443637">
                <ele>128.954102</ele>
                <time>2012-08-25T09:12:07Z</time>
            </trkpt>
            <trkpt lon="99.573201" lat="13.444296">
                <ele>130.876709</ele>
                <time>2012-08-25T09:12:42Z</time>
            </trkpt>
            <trkpt lon="99.573855" lat="13.444514">
                <ele>128.473389</ele>
                <time>2012-08-25T09:12:54Z</time>
            </trkpt>
            <trkpt lon="99.574376" lat="13.444883">
                <ele>127.511963</ele>
                <time>2012-08-25T09:13:07Z</time>
            </trkpt>
            <trkpt lon="99.575101" lat="13.445975">
                <ele>121.744141</ele>
                <time>2012-08-25T09:13:36Z</time>
            </trkpt>
            <trkpt lon="99.575785" lat="13.447796">
                <ele>131.837891</ele>
                <time>2012-08-25T09:15:45Z</time>
            </trkpt>
            <trkpt lon="99.575897" lat="13.447806">
                <ele>131.840000</ele>
                <time>2012-08-25T09:04:20Z</time>
            </trkpt>
            <trkpt lon="99.575151" lat="13.447493">
                <ele>132.320000</ele>
                <time>2012-08-25T09:04:56Z</time>
            </trkpt>
            <trkpt lon="99.574671" lat="13.447461">
                <ele>132.800000</ele>
                <time>2012-08-25T09:05:09Z</time>
            </trkpt>
            <trkpt lon="99.573245" lat="13.447633">
                <ele>134.240000</ele>
                <time>2012-08-25T09:05:42Z</time>
            </trkpt>
            <trkpt lon="99.573050" lat="13.447563">
                <ele>137.130000</ele>
                <time>2012-08-25T09:05:48Z</time>
            </trkpt>
            <trkpt lon="99.572607" lat="13.447286">
                <ele>136.640000</ele>
                <time>2012-08-25T09:06:01Z</time>
            </trkpt>
            <trkpt lon="99.572000" lat="13.447041">
                <ele>136.160000</ele>
                <time>2012-08-25T09:06:15Z</time>
            </trkpt>
            <trkpt lon="99.570847" lat="13.446739">
                <ele>144.340000</ele>
                <time>2012-08-25T09:06:55Z</time>
            </trkpt>
            <trkpt lon="99.568151" lat="13.446327">
                <ele>147.220000</ele>
                <time>2012-08-25T09:08:12Z</time>
            </trkpt>
            <trkpt lon="99.566275" lat="13.446807">
                <ele>147.700000</ele>
                <time>2012-08-25T09:08:52Z</time>
            </trkpt>
            <trkpt lon="99.565851" lat="13.447246">
                <ele>149.620000</ele>
                <time>2012-08-25T09:09:07Z</time>
            </trkpt>
            <trkpt lon="99.565123" lat="13.447592">
                <ele>144.340000</ele>
                <time>2012-08-25T09:09:19Z</time>
            </trkpt>
            <trkpt lon="99.564739" lat="13.448460">
                <ele>147.220000</ele>
                <time>2012-08-25T09:09:35Z</time>
            </trkpt>
            <trkpt lon="99.564318" lat="13.448987">
                <ele>148.660000</ele>
                <time>2012-08-25T09:09:50Z</time>
            </trkpt>
            <trkpt lon="99.563798" lat="13.449320">
                <ele>154.910000</ele>
                <time>2012-08-25T09:10:13Z</time>
            </trkpt>
            <trkpt lon="99.562936" lat="13.449071">
                <ele>148.660000</ele>
                <time>2012-08-25T09:10:29Z</time>
            </trkpt>
            <trkpt lon="99.562022" lat="13.449004">
                <ele>147.220000</ele>
                <time>2012-08-25T09:10:40Z</time>
            </trkpt>
            <trkpt lon="99.561691" lat="13.450076">
                <ele>140.010000</ele>
                <time>2012-08-25T09:10:55Z</time>
            </trkpt>
            <trkpt lon="99.561412" lat="13.450353">
                <ele>146.740000</ele>
                <time>2012-08-25T09:11:05Z</time>
            </trkpt>
            <trkpt lon="99.561334" lat="13.450469">
                <ele>146.740000</ele>
                <time>2012-08-25T09:11:09Z</time>
            </trkpt>
            <trkpt lon="99.561154" lat="13.451056">
                <ele>145.780000</ele>
                <time>2012-08-25T09:11:21Z</time>
            </trkpt>
            <trkpt lon="99.560626" lat="13.451526">
                <ele>135.680000</ele>
                <time>2012-08-25T09:11:35Z</time>
            </trkpt>
            <trkpt lon="99.559976" lat="13.451578">
                <ele>141.930000</ele>
                <time>2012-08-25T09:12:15Z</time>
            </trkpt>
            <trkpt lon="99.560488" lat="13.451599">
                <ele>134.720000</ele>
                <time>2012-08-25T09:12:28Z</time>
            </trkpt>
            <trkpt lon="99.560857" lat="13.451404">
                <ele>136.160000</ele>
                <time>2012-08-25T09:12:37Z</time>
            </trkpt>
            <trkpt lon="99.561609" lat="13.452365">
                <ele>139.050000</ele>
                <time>2012-08-25T09:14:13Z</time>
            </trkpt>
            <trkpt lon="99.561823" lat="13.453048">
                <ele>138.570000</ele>
                <time>2012-08-25T09:14:36Z</time>
            </trkpt>
            <trkpt lon="99.561477" lat="13.454321">
                <ele>141.450000</ele>
                <time>2012-08-25T09:15:24Z</time>
            </trkpt>
            <trkpt lon="99.561747" lat="13.455099">
                <ele>133.280000</ele>
                <time>2012-08-25T09:15:44Z</time>
            </trkpt>
            <trkpt lon="99.561766" lat="13.456308">
                <ele>141.930000</ele>
                <time>2012-08-25T09:16:36Z</time>
            </trkpt>
            <trkpt lon="99.562126" lat="13.456960">
                <ele>146.740000</ele>
                <time>2012-08-25T09:17:20Z</time>
            </trkpt>
            <trkpt lon="99.562378" lat="13.457994">
                <ele>140.490000</ele>
                <time>2012-08-25T09:17:48Z</time>
            </trkpt>
            <trkpt lon="99.562627" lat="13.458412">
                <ele>140.010000</ele>
                <time>2012-08-25T09:18:00Z</time>
            </trkpt>
            <trkpt lon="99.562965" lat="13.458606">
                <ele>140.010000</ele>
                <time>2012-08-25T09:18:13Z</time>
            </trkpt>
            <trkpt lon="99.563222" lat="13.459393">
                <ele>141.450000</ele>
                <time>2012-08-25T09:18:42Z</time>
            </trkpt>
            <trkpt lon="99.563537" lat="13.460103">
                <ele>135.680000</ele>
                <time>2012-08-25T09:19:07Z</time>
            </trkpt>
            <trkpt lon="99.563342" lat="13.461295">
                <ele>129.430000</ele>
                <time>2012-08-25T09:19:38Z</time>
            </trkpt>
            <trkpt lon="99.561766" lat="13.464438">
                <ele>122.220000</ele>
                <time>2012-08-25T09:21:10Z</time>
            </trkpt>
            <trkpt lon="99.561502" lat="13.464841">
                <ele>119.820000</ele>
                <time>2012-08-25T09:21:23Z</time>
            </trkpt>
            <trkpt lon="99.561361" lat="13.465000">
                <ele>116.460000</ele>
                <time>2012-08-25T09:21:29Z</time>
            </trkpt>
            <trkpt lon="99.560976" lat="13.465003">
                <ele>114.530000</ele>
                <time>2012-08-25T09:21:45Z</time>
            </trkpt>
            <trkpt lon="99.560709" lat="13.465191">
                <ele>115.010000</ele>
                <time>2012-08-25T09:21:58Z</time>
            </trkpt>
            <trkpt lon="99.560270" lat="13.465829">
                <ele>117.420000</ele>
                <time>2012-08-25T09:22:23Z</time>
            </trkpt>
            <trkpt lon="99.560156" lat="13.465844">
                <ele>120.780000</ele>
                <time>2012-08-25T09:22:28Z</time>
            </trkpt>
            <trkpt lon="99.559813" lat="13.465850">
                <ele>122.220000</ele>
                <time>2012-08-25T09:22:41Z</time>
            </trkpt>
            <trkpt lon="99.559211" lat="13.465875">
                <ele>117.420000</ele>
                <time>2012-08-25T09:22:57Z</time>
            </trkpt>
            <trkpt lon="99.559017" lat="13.466246">
                <ele>119.340000</ele>
                <time>2012-08-25T09:23:08Z</time>
            </trkpt>
            <trkpt lon="99.559032" lat="13.468978">
                <ele>115.980000</ele>
                <time>2012-08-25T09:24:11Z</time>
            </trkpt>
            <trkpt lon="99.559011" lat="13.469480">
                <ele>111.170000</ele>
                <time>2012-08-25T09:24:23Z</time>
            </trkpt>
            <trkpt lon="99.559290" lat="13.469752">
                <ele>110.690000</ele>
                <time>2012-08-25T09:24:35Z</time>
            </trkpt>
            <trkpt lon="99.559261" lat="13.470173">
                <ele>111.650000</ele>
                <time>2012-08-25T09:24:46Z</time>
            </trkpt>
            <trkpt lon="99.558641" lat="13.470853">
                <ele>111.170000</ele>
                <time>2012-08-25T09:25:09Z</time>
            </trkpt>
            <trkpt lon="99.558513" lat="13.471575">
                <ele>111.170000</ele>
                <time>2012-08-25T09:25:26Z</time>
            </trkpt>
            <trkpt lon="99.558063" lat="13.473492">
                <ele>106.840000</ele>
                <time>2012-08-25T09:26:06Z</time>
            </trkpt>
            <trkpt lon="99.558034" lat="13.474594">
                <ele>109.250000</ele>
                <time>2012-08-25T09:26:33Z</time>
            </trkpt>
            <trkpt lon="99.558790" lat="13.474666">
                <ele>110.690000</ele>
                <time>2012-08-25T09:26:57Z</time>
            </trkpt>
            <trkpt lon="99.559015" lat="13.474892">
                <ele>107.810000</ele>
                <time>2012-08-25T09:27:09Z</time>
            </trkpt>
            <trkpt lon="99.559875" lat="13.475015">
                <ele>104.920000</ele>
                <time>2012-08-25T09:27:28Z</time>
            </trkpt>
            <trkpt lon="99.560482" lat="13.474936">
                <ele>109.730000</ele>
                <time>2012-08-25T09:27:45Z</time>
            </trkpt>
            <trkpt lon="99.560874" lat="13.474839">
                <ele>109.730000</ele>
                <time>2012-08-25T09:27:57Z</time>
            </trkpt>
            <trkpt lon="99.561399" lat="13.474396">
                <ele>110.210000</ele>
                <time>2012-08-25T09:28:17Z</time>
            </trkpt>
            <trkpt lon="99.562561" lat="13.473976">
                <ele>111.170000</ele>
                <time>2012-08-25T09:29:28Z</time>
            </trkpt>
            <trkpt lon="99.563446" lat="13.474053">
                <ele>110.690000</ele>
                <time>2012-08-25T09:29:56Z</time>
            </trkpt>
            <trkpt lon="99.564386" lat="13.474420">
                <ele>114.050000</ele>
                <time>2012-08-25T09:30:31Z</time>
            </trkpt>
            <trkpt lon="99.565177" lat="13.474803">
                <ele>113.570000</ele>
                <time>2012-08-25T09:31:00Z</time>
            </trkpt>
            <trkpt lon="99.565302" lat="13.476013">
                <ele>119.820000</ele>
                <time>2012-08-25T09:31:48Z</time>
            </trkpt>
            <trkpt lon="99.565489" lat="13.476540">
                <ele>119.820000</ele>
                <time>2012-08-25T09:32:13Z</time>
            </trkpt>
            <trkpt lon="99.565430" lat="13.477087">
                <ele>125.110000</ele>
                <time>2012-08-25T09:32:37Z</time>
            </trkpt>
            <trkpt lon="99.565462" lat="13.477469">
                <ele>126.550000</ele>
                <time>2012-08-25T09:32:52Z</time>
            </trkpt>
            <trkpt lon="99.565517" lat="13.477888">
                <ele>124.630000</ele>
                <time>2012-08-25T09:33:08Z</time>
            </trkpt>
            <trkpt lon="99.565414" lat="13.478418">
                <ele>127.030000</ele>
                <time>2012-08-25T09:33:27Z</time>
            </trkpt>
            <trkpt lon="99.564683" lat="13.479310">
                <ele>125.110000</ele>
                <time>2012-08-25T09:34:02Z</time>
            </trkpt>
            <trkpt lon="99.564899" lat="13.479289">
                <ele>126.070000</ele>
                <time>2012-08-25T09:34:14Z</time>
            </trkpt>
            <trkpt lon="99.565362" lat="13.479425">
                <ele>125.110000</ele>
                <time>2012-08-25T09:34:31Z</time>
            </trkpt>
            <trkpt lon="99.565919" lat="13.479354">
                <ele>129.920000</ele>
                <time>2012-08-25T09:34:55Z</time>
            </trkpt>
            <trkpt lon="99.566301" lat="13.479501">
                <ele>133.280000</ele>
                <time>2012-08-25T09:35:19Z</time>
            </trkpt>
            <trkpt lon="99.566029" lat="13.479854">
                <ele>128.950000</ele>
                <time>2012-08-25T09:35:34Z</time>
            </trkpt>
            <trkpt lon="99.565426" lat="13.479952">
                <ele>123.670000</ele>
                <time>2012-08-25T09:35:47Z</time>
            </trkpt>
            <trkpt lon="99.565522" lat="13.480764">
                <ele>133.280000</ele>
                <time>2012-08-25T09:36:25Z</time>
            </trkpt>
            <trkpt lon="99.565609" lat="13.481252">
                <ele>135.680000</ele>
                <time>2012-08-25T09:36:55Z</time>
            </trkpt>
            <trkpt lon="99.565933" lat="13.481390">
                <ele>140.490000</ele>
                <time>2012-08-25T09:37:18Z</time>
            </trkpt>
            <trkpt lon="99.565835" lat="13.481768">
                <ele>140.010000</ele>
                <time>2012-08-25T09:37:34Z</time>
            </trkpt>
            <trkpt lon="99.565985" lat="13.482074">
                <ele>140.490000</ele>
                <time>2012-08-25T09:37:46Z</time>
            </trkpt>
            <trkpt lon="99.566663" lat="13.482330">
                <ele>147.220000</ele>
                <time>2012-08-25T09:38:28Z</time>
            </trkpt>
            <trkpt lon="99.566682" lat="13.482510">
                <ele>145.300000</ele>
                <time>2012-08-25T09:38:41Z</time>
            </trkpt>
            <trkpt lon="99.566320" lat="13.482689">
                <ele>141.930000</ele>
                <time>2012-08-25T09:38:51Z</time>
            </trkpt>
            <trkpt lon="99.566247" lat="13.482725">
                <ele>140.970000</ele>
                <time>2012-08-25T09:38:53Z</time>
            </trkpt>
            <trkpt lon="99.565701" lat="13.482733">
                <ele>134.240000</ele>
                <time>2012-08-25T09:39:07Z</time>
            </trkpt>
            <trkpt lon="99.565189" lat="13.483296">
                <ele>133.760000</ele>
                <time>2012-08-25T09:39:25Z</time>
            </trkpt>
            <trkpt lon="99.564978" lat="13.483630">
                <ele>131.840000</ele>
                <time>2012-08-25T09:39:33Z</time>
            </trkpt>
            <trkpt lon="99.564935" lat="13.484211">
                <ele>129.920000</ele>
                <time>2012-08-25T09:39:44Z</time>
            </trkpt>
            <trkpt lon="99.564700" lat="13.484511">
                <ele>127.510000</ele>
                <time>2012-08-25T09:39:53Z</time>
            </trkpt>
            <trkpt lon="99.565415" lat="13.485598">
                <ele>131.840000</ele>
                <time>2012-08-25T09:40:37Z</time>
            </trkpt>
            <trkpt lon="99.565827" lat="13.485976">
                <ele>134.720000</ele>
                <time>2012-08-25T09:41:02Z</time>
            </trkpt>
            <trkpt lon="99.567112" lat="13.486088">
                <ele>142.890000</ele>
                <time>2012-08-25T09:42:13Z</time>
            </trkpt>
            <trkpt lon="99.567418" lat="13.486119">
                <ele>144.340000</ele>
                <time>2012-08-25T09:42:29Z</time>
            </trkpt>
            <trkpt lon="99.567573" lat="13.486263">
                <ele>147.220000</ele>
                <time>2012-08-25T09:42:44Z</time>
            </trkpt>
            <trkpt lon="99.567371" lat="13.486824">
                <ele>148.180000</ele>
                <time>2012-08-25T09:43:16Z</time>
            </trkpt>
            <trkpt lon="99.567513" lat="13.487062">
                <ele>151.540000</ele>
                <time>2012-08-25T09:43:30Z</time>
            </trkpt>
            <trkpt lon="99.567521" lat="13.487076">
                <ele>151.540000</ele>
                <time>2012-08-25T09:43:31Z</time>
            </trkpt>
            <trkpt lon="99.567442" lat="13.487237">
                <ele>149.620000</ele>
                <time>2012-08-25T09:43:41Z</time>
            </trkpt>
            <trkpt lon="99.567125" lat="13.487348">
                <ele>146.260000</ele>
                <time>2012-08-25T09:43:49Z</time>
            </trkpt>
            <trkpt lon="99.566841" lat="13.487542">
                <ele>141.450000</ele>
                <time>2012-08-25T09:43:57Z</time>
            </trkpt>
            <trkpt lon="99.566721" lat="13.488276">
                <ele>140.010000</ele>
                <time>2012-08-25T09:44:21Z</time>
            </trkpt>
            <trkpt lon="99.566162" lat="13.488700">
                <ele>131.840000</ele>
                <time>2012-08-25T09:44:38Z</time>
            </trkpt>
            <trkpt lon="99.565639" lat="13.488807">
                <ele>127.510000</ele>
                <time>2012-08-25T09:44:49Z</time>
            </trkpt>
            <trkpt lon="99.565354" lat="13.489353">
                <ele>128.470000</ele>
                <time>2012-08-25T09:45:09Z</time>
            </trkpt>
            <trkpt lon="99.565234" lat="13.489504">
                <ele>125.110000</ele>
                <time>2012-08-25T09:45:15Z</time>
            </trkpt>
            <trkpt lon="99.564419" lat="13.490172">
                <ele>116.940000</ele>
                <time>2012-08-25T09:45:41Z</time>
            </trkpt>
            <trkpt lon="99.564277" lat="13.490413">
                <ele>115.980000</ele>
                <time>2012-08-25T09:45:52Z</time>
            </trkpt>
            <trkpt lon="99.564017" lat="13.490678">
                <ele>113.090000</ele>
                <time>2012-08-25T09:46:02Z</time>
            </trkpt>
            <trkpt lon="99.563865" lat="13.491058">
                <ele>115.010000</ele>
                <time>2012-08-25T09:46:15Z</time>
            </trkpt>
            <trkpt lon="99.563785" lat="13.491241">
                <ele>112.130000</ele>
                <time>2012-08-25T09:46:20Z</time>
            </trkpt>
            <trkpt lon="99.563792" lat="13.491400">
                <ele>114.050000</ele>
                <time>2012-08-25T09:46:25Z</time>
            </trkpt>
            <trkpt lon="99.564315" lat="13.491702">
                <ele>116.940000</ele>
                <time>2012-08-25T09:46:51Z</time>
            </trkpt>
            <trkpt lon="99.564382" lat="13.491899">
                <ele>118.860000</ele>
                <time>2012-08-25T09:47:03Z</time>
            </trkpt>
            <trkpt lon="99.564017" lat="13.492367">
                <ele>116.940000</ele>
                <time>2012-08-25T09:47:20Z</time>
            </trkpt>
            <trkpt lon="99.563981" lat="13.492706">
                <ele>116.460000</ele>
                <time>2012-08-25T09:47:30Z</time>
            </trkpt>
            <trkpt lon="99.563258" lat="13.492924">
                <ele>113.090000</ele>
                <time>2012-08-25T09:48:01Z</time>
            </trkpt>
            <trkpt lon="99.563981" lat="13.492659">
                <ele>116.460000</ele>
                <time>2012-08-25T09:48:32Z</time>
            </trkpt>
            <trkpt lon="99.564253" lat="13.492775">
                <ele>118.380000</ele>
                <time>2012-08-25T09:48:45Z</time>
            </trkpt>
            <trkpt lon="99.564497" lat="13.492794">
                <ele>119.340000</ele>
                <time>2012-08-25T09:48:59Z</time>
            </trkpt>
            <trkpt lon="99.564393" lat="13.493448">
                <ele>116.460000</ele>
                <time>2012-08-25T09:49:21Z</time>
            </trkpt>
            <trkpt lon="99.564915" lat="13.493738">
                <ele>120.300000</ele>
                <time>2012-08-25T09:49:48Z</time>
            </trkpt>
            <trkpt lon="99.565297" lat="13.493784">
                <ele>123.190000</ele>
                <time>2012-08-25T09:50:11Z</time>
            </trkpt>
            <trkpt lon="99.565361" lat="13.493843">
                <ele>123.190000</ele>
                <time>2012-08-25T09:50:41Z</time>
            </trkpt>
            <trkpt lon="99.565314" lat="13.494509">
                <ele>114.530000</ele>
                <time>2012-08-25T09:51:09Z</time>
            </trkpt>
            <trkpt lon="99.566023" lat="13.494850">
                <ele>111.170000</ele>
                <time>2012-08-25T09:51:53Z</time>
            </trkpt>
            <trkpt lon="99.566450" lat="13.495772">
                <ele>102.520000</ele>
                <time>2012-08-25T09:52:10Z</time>
            </trkpt>
            <trkpt lon="99.566601" lat="13.495987">
                <ele>99.630000</ele>
                <time>2012-08-25T09:52:14Z</time>
            </trkpt>
            <trkpt lon="99.566909" lat="13.496151">
                <ele>103.960000</ele>
                <time>2012-08-25T09:52:22Z</time>
            </trkpt>
            <trkpt lon="99.567334" lat="13.496039">
                <ele>107.320000</ele>
                <time>2012-08-25T09:52:36Z</time>
            </trkpt>
            <trkpt lon="99.568009" lat="13.496268">
                <ele>109.250000</ele>
                <time>2012-08-25T09:53:03Z</time>
            </trkpt>
            <trkpt lon="99.568950" lat="13.496403">
                <ele>105.880000</ele>
                <time>2012-08-25T09:53:22Z</time>
            </trkpt>
            <trkpt lon="99.569379" lat="13.496506">
                <ele>102.520000</ele>
                <time>2012-08-25T09:53:30Z</time>
            </trkpt>
            <trkpt lon="99.570111" lat="13.496045">
                <ele>105.400000</ele>
                <time>2012-08-25T09:54:56Z</time>
            </trkpt>
            <trkpt lon="99.570534" lat="13.495995">
                <ele>102.520000</ele>
                <time>2012-08-25T09:55:05Z</time>
            </trkpt>
            <trkpt lon="99.570770" lat="13.495791">
                <ele>103.000000</ele>
                <time>2012-08-25T09:55:11Z</time>
            </trkpt>
            <trkpt lon="99.570899" lat="13.495483">
                <ele>104.920000</ele>
                <time>2012-08-25T09:55:25Z</time>
            </trkpt>
            <trkpt lon="99.571351" lat="13.495032">
                <ele>105.880000</ele>
                <time>2012-08-25T09:55:47Z</time>
            </trkpt>
            <trkpt lon="99.571437" lat="13.494689">
                <ele>107.320000</ele>
                <time>2012-08-25T09:55:58Z</time>
            </trkpt>
            <trkpt lon="99.571939" lat="13.494350">
                <ele>104.920000</ele>
                <time>2012-08-25T09:56:14Z</time>
            </trkpt>
            <trkpt lon="99.571895" lat="13.494178">
                <ele>107.810000</ele>
                <time>2012-08-25T09:56:26Z</time>
            </trkpt>
            <trkpt lon="99.572012" lat="13.493908">
                <ele>108.290000</ele>
                <time>2012-08-25T09:56:41Z</time>
            </trkpt>
            <trkpt lon="99.572416" lat="13.493964">
                <ele>104.440000</ele>
                <time>2012-08-25T09:56:54Z</time>
            </trkpt>
            <trkpt lon="99.572654" lat="13.493930">
                <ele>100.110000</ele>
                <time>2012-08-25T09:56:58Z</time>
            </trkpt>
            <trkpt lon="99.572804" lat="13.493803">
                <ele>104.920000</ele>
                <time>2012-08-25T09:57:07Z</time>
            </trkpt>
            <trkpt lon="99.572939" lat="13.493205">
                <ele>109.730000</ele>
                <time>2012-08-25T09:57:41Z</time>
            </trkpt>
            <trkpt lon="99.573226" lat="13.493064">
                <ele>110.210000</ele>
                <time>2012-08-25T09:57:55Z</time>
            </trkpt>
            <trkpt lon="99.574156" lat="13.493816">
                <ele>99.630000</ele>
                <time>2012-08-25T09:58:18Z</time>
            </trkpt>
            <trkpt lon="99.574419" lat="13.493423">
                <ele>100.600000</ele>
                <time>2012-08-25T09:58:30Z</time>
            </trkpt>
            <trkpt lon="99.574539" lat="13.492758">
                <ele>109.250000</ele>
                <time>2012-08-25T09:59:11Z</time>
            </trkpt>
            <trkpt lon="99.574639" lat="13.492641">
                <ele>109.250000</ele>
                <time>2012-08-25T09:59:20Z</time>
            </trkpt>
            <trkpt lon="99.575209" lat="13.493058">
                <ele>102.520000</ele>
                <time>2012-08-25T09:59:35Z</time>
            </trkpt>
            <trkpt lon="99.575549" lat="13.493104">
                <ele>98.670000</ele>
                <time>2012-08-25T09:59:40Z</time>
            </trkpt>
            <trkpt lon="99.577146" lat="13.491856">
                <ele>103.960000</ele>
                <time>2012-08-25T10:00:35Z</time>
            </trkpt>
            <trkpt lon="99.576968" lat="13.490937">
                <ele>111.650000</ele>
                <time>2012-08-25T10:01:18Z</time>
            </trkpt>
            <trkpt lon="99.577481" lat="13.490643">
                <ele>106.360000</ele>
                <time>2012-08-25T10:01:37Z</time>
            </trkpt>
            <trkpt lon="99.577700" lat="13.489700">
                <ele>108.290000</ele>
                <time>2012-08-25T10:02:04Z</time>
            </trkpt>
            <trkpt lon="99.578376" lat="13.488757">
                <ele>110.210000</ele>
                <time>2012-08-25T10:02:40Z</time>
            </trkpt>
            <trkpt lon="99.578665" lat="13.487839">
                <ele>117.900000</ele>
                <time>2012-08-25T10:03:28Z</time>
            </trkpt>
            <trkpt lon="99.578777" lat="13.487409">
                <ele>116.940000</ele>
                <time>2012-08-25T10:03:43Z</time>
            </trkpt>
            <trkpt lon="99.578702" lat="13.485107">
                <ele>125.590000</ele>
                <time>2012-08-25T10:05:19Z</time>
            </trkpt>
            <trkpt lon="99.578747" lat="13.484814">
                <ele>124.150000</ele>
                <time>2012-08-25T10:05:28Z</time>
            </trkpt>
            <trkpt lon="99.578950" lat="13.484477">
                <ele>118.380000</ele>
                <time>2012-08-25T10:05:36Z</time>
            </trkpt>
            <trkpt lon="99.579520" lat="13.484269">
                <ele>115.010000</ele>
                <time>2012-08-25T10:05:46Z</time>
            </trkpt>
            <trkpt lon="99.579980" lat="13.483675">
                <ele>115.980000</ele>
                <time>2012-08-25T10:06:03Z</time>
            </trkpt>
            <trkpt lon="99.580280" lat="13.482961">
                <ele>113.570000</ele>
                <time>2012-08-25T10:06:18Z</time>
            </trkpt>
            <trkpt lon="99.580910" lat="13.482111">
                <ele>111.170000</ele>
                <time>2012-08-25T10:06:39Z</time>
            </trkpt>
            <trkpt lon="99.581343" lat="13.480868">
                <ele>107.320000</ele>
                <time>2012-08-25T10:07:10Z</time>
            </trkpt>
            <trkpt lon="99.581309" lat="13.480702">
                <ele>106.840000</ele>
                <time>2012-08-25T10:07:22Z</time>
            </trkpt>
            <trkpt lon="99.581479" lat="13.480813">
                <ele>107.320000</ele>
                <time>2012-08-25T10:07:41Z</time>
            </trkpt>
            <trkpt lon="99.583205" lat="13.481327">
                <ele>100.600000</ele>
                <time>2012-08-25T10:08:35Z</time>
            </trkpt>
            <trkpt lon="99.581352" lat="13.480730">
                <ele>106.840000</ele>
                <time>2012-08-25T10:12:47Z</time>
            </trkpt>
            <trkpt lon="99.580981" lat="13.479593">
                <ele>99.630000</ele>
                <time>2012-08-25T10:13:16Z</time>
            </trkpt>
            <trkpt lon="99.581168" lat="13.478862">
                <ele>100.600000</ele>
                <time>2012-08-25T10:13:31Z</time>
            </trkpt>
            <trkpt lon="99.581576" lat="13.478487">
                <ele>101.080000</ele>
                <time>2012-08-25T10:13:42Z</time>
            </trkpt>
            <trkpt lon="99.581793" lat="13.478155">
                <ele>99.630000</ele>
                <time>2012-08-25T10:13:50Z</time>
            </trkpt>
            <trkpt lon="99.582060" lat="13.476686">
                <ele>101.080000</ele>
                <time>2012-08-25T10:14:23Z</time>
            </trkpt>
            <trkpt lon="99.582262" lat="13.475702">
                <ele>98.670000</ele>
                <time>2012-08-25T10:14:44Z</time>
            </trkpt>
            <trkpt lon="99.582256" lat="13.475004">
                <ele>102.520000</ele>
                <time>2012-08-25T10:15:03Z</time>
            </trkpt>
            <trkpt lon="99.582216" lat="13.474521">
                <ele>102.040000</ele>
                <time>2012-08-25T10:15:17Z</time>
            </trkpt>
            <trkpt lon="99.582211" lat="13.474085">
                <ele>103.960000</ele>
                <time>2012-08-25T10:15:31Z</time>
            </trkpt>
            <trkpt lon="99.582235" lat="13.473823">
                <ele>102.040000</ele>
                <time>2012-08-25T10:15:37Z</time>
            </trkpt>
            <trkpt lon="99.581794" lat="13.470580">
                <ele>110.210000</ele>
                <time>2012-08-25T10:17:26Z</time>
            </trkpt>
            <trkpt lon="99.581797" lat="13.469742">
                <ele>110.210000</ele>
                <time>2012-08-25T10:17:51Z</time>
            </trkpt>
            <trkpt lon="99.582139" lat="13.468982">
                <ele>112.610000</ele>
                <time>2012-08-25T10:18:16Z</time>
            </trkpt>
            <trkpt lon="99.582301" lat="13.468183">
                <ele>112.130000</ele>
                <time>2012-08-25T10:18:39Z</time>
            </trkpt>
            <trkpt lon="99.582179" lat="13.467405">
                <ele>114.050000</ele>
                <time>2012-08-25T10:19:05Z</time>
            </trkpt>
            <trkpt lon="99.582798" lat="13.466368">
                <ele>111.650000</ele>
                <time>2012-08-25T10:19:34Z</time>
            </trkpt>
            <trkpt lon="99.582926" lat="13.465690">
                <ele>114.050000</ele>
                <time>2012-08-25T10:19:52Z</time>
            </trkpt>
            <trkpt lon="99.582823" lat="13.464981">
                <ele>117.420000</ele>
                <time>2012-08-25T10:20:22Z</time>
            </trkpt>
            <trkpt lon="99.582833" lat="13.464516">
                <ele>118.860000</ele>
                <time>2012-08-25T10:20:38Z</time>
            </trkpt>
            <trkpt lon="99.582984" lat="13.463959">
                <ele>119.340000</ele>
                <time>2012-08-25T10:20:56Z</time>
            </trkpt>
            <trkpt lon="99.584080" lat="13.462585">
                <ele>110.690000</ele>
                <time>2012-08-25T10:21:28Z</time>
            </trkpt>
            <trkpt lon="99.586173" lat="13.461478">
                <ele>119.340000</ele>
                <time>2012-08-25T10:34:33Z</time>
            </trkpt>
            <trkpt lon="99.587072" lat="13.461000">
                <ele>116.940000</ele>
                <time>2012-08-25T10:35:01Z</time>
            </trkpt>
            <trkpt lon="99.588058" lat="13.460784">
                <ele>113.090000</ele>
                <time>2012-08-25T10:35:22Z</time>
            </trkpt>
            <trkpt lon="99.588729" lat="13.461433">
                <ele>112.610000</ele>
                <time>2012-08-25T10:35:45Z</time>
            </trkpt>
            <trkpt lon="99.588820" lat="13.462021">
                <ele>113.090000</ele>
                <time>2012-08-25T10:35:58Z</time>
            </trkpt>
            <trkpt lon="99.588868" lat="13.463022">
                <ele>112.610000</ele>
                <time>2012-08-25T10:36:18Z</time>
            </trkpt>
            <trkpt lon="99.588957" lat="13.463706">
                <ele>109.250000</ele>
                <time>2012-08-25T10:36:30Z</time>
            </trkpt>
            <trkpt lon="99.589274" lat="13.464028">
                <ele>108.290000</ele>
                <time>2012-08-25T10:36:38Z</time>
            </trkpt>
            <trkpt lon="99.590339" lat="13.463712">
                <ele>109.250000</ele>
                <time>2012-08-25T10:37:01Z</time>
            </trkpt>
            <trkpt lon="99.591072" lat="13.463707">
                <ele>108.770000</ele>
                <time>2012-08-25T10:37:16Z</time>
            </trkpt>
            <trkpt lon="99.592068" lat="13.463319">
                <ele>109.250000</ele>
                <time>2012-08-25T10:37:36Z</time>
            </trkpt>
            <trkpt lon="99.592345" lat="13.463362">
                <ele>107.810000</ele>
                <time>2012-08-25T10:37:42Z</time>
            </trkpt>
            <trkpt lon="99.592982" lat="13.463851">
                <ele>108.770000</ele>
                <time>2012-08-25T10:37:58Z</time>
            </trkpt>
            <trkpt lon="99.593630" lat="13.464167">
                <ele>109.730000</ele>
                <time>2012-08-25T10:38:14Z</time>
            </trkpt>
            <trkpt lon="99.594750" lat="13.464750">
                <ele>109.730000</ele>
                <time>2012-08-25T10:38:42Z</time>
            </trkpt>
            <trkpt lon="99.594968" lat="13.464871">
                <ele>109.250000</ele>
                <time>2012-08-25T10:38:48Z</time>
            </trkpt>
            <trkpt lon="99.594886" lat="13.464908">
                <ele>108.285645</ele>
                <time>2012-08-25T09:30:18Z</time>
            </trkpt>
            <trkpt lon="99.595226" lat="13.464918">
                <ele>107.324341</ele>
                <time>2012-08-25T09:30:42Z</time>
            </trkpt>
            <trkpt lon="99.598649" lat="13.464569">
                <ele>106.843628</ele>
                <time>2012-08-25T09:31:51Z</time>
            </trkpt>
            <trkpt lon="99.600854" lat="13.464061">
                <ele>105.401733</ele>
                <time>2012-08-25T09:32:30Z</time>
            </trkpt>
            <trkpt lon="99.601173" lat="13.463784">
                <ele>103.959717</ele>
                <time>2012-08-25T09:32:38Z</time>
            </trkpt>
            <trkpt lon="99.602833" lat="13.461459">
                <ele>98.672485</ele>
                <time>2012-08-25T09:33:32Z</time>
            </trkpt>
            <trkpt lon="99.604394" lat="13.460554">
                <ele>99.633789</ele>
                <time>2012-08-25T09:34:08Z</time>
            </trkpt>
            <trkpt lon="99.605778" lat="13.460815">
                <ele>99.633789</ele>
                <time>2012-08-25T09:34:33Z</time>
            </trkpt>
            <trkpt lon="99.607551" lat="13.461423">
                <ele>97.230469</ele>
                <time>2012-08-25T09:35:06Z</time>
            </trkpt>
            <trkpt lon="99.611342" lat="13.463240">
                <ele>93.385132</ele>
                <time>2012-08-25T09:36:25Z</time>
            </trkpt>
            <trkpt lon="99.614645" lat="13.463358">
                <ele>92.423950</ele>
                <time>2012-08-25T09:37:24Z</time>
            </trkpt>
            <trkpt lon="99.615777" lat="13.463373">
                <ele>89.539917</ele>
                <time>2012-08-25T09:37:43Z</time>
            </trkpt>
            <trkpt lon="99.616659" lat="13.463099">
                <ele>88.578735</ele>
                <time>2012-08-25T09:37:58Z</time>
            </trkpt>
            <trkpt lon="99.619246" lat="13.461324">
                <ele>86.175293</ele>
                <time>2012-08-25T09:39:00Z</time>
            </trkpt>
            <trkpt lon="99.619710" lat="13.461120">
                <ele>86.175293</ele>
                <time>2012-08-25T09:39:11Z</time>
            </trkpt>
            <trkpt lon="99.621545" lat="13.461479">
                <ele>87.136597</ele>
                <time>2012-08-25T09:39:49Z</time>
            </trkpt>
            <trkpt lon="99.623130" lat="13.461571">
                <ele>85.213989</ele>
                <time>2012-08-25T09:40:21Z</time>
            </trkpt>
            <trkpt lon="99.624951" lat="13.461323">
                <ele>85.213989</ele>
                <time>2012-08-25T09:41:15Z</time>
            </trkpt>
            <trkpt lon="99.625371" lat="13.460388">
                <ele>81.849365</ele>
                <time>2012-08-25T09:41:49Z</time>
            </trkpt>
            <trkpt lon="99.626214" lat="13.460545">
                <ele>86.656006</ele>
                <time>2012-08-25T09:42:25Z</time>
            </trkpt>
            <trkpt lon="99.626413" lat="13.460727">
                <ele>89.539917</ele>
                <time>2012-08-25T09:43:52Z</time>
            </trkpt>
            <trkpt lon="99.625687" lat="13.460439">
                <ele>84.252685</ele>
                <time>2012-08-25T09:46:38Z</time>
            </trkpt>
            <trkpt lon="99.625721" lat="13.459971">
                <ele>83.771973</ele>
                <time>2012-08-25T09:47:08Z</time>
            </trkpt>
        </trkseg>
    </trk>
</gpx>